createdAt,value
2018-07-20T00:01:44.880Z,99.90
2018-07-20T00:04:26.526Z,99.90
2018-07-20T00:07:08.066Z,99.90
2018-07-20T00:09:49.485Z,99.90
2018-07-20T00:12:31.340Z,99.90
2018-07-20T00:15:12.627Z,99.90
2018-07-20T00:17:54.382Z,99.90
2018-07-20T00:20:36.236Z,99.90
2018-07-20T00:23:18.225Z,99.90
2018-07-20T00:25:59.362Z,99.90
2018-07-20T00:28:40.977Z,99.90
2018-07-20T00:31:22.656Z,99.90
2018-07-20T00:34:04.240Z,99.90
2018-07-20T00:36:45.982Z,99.90
2018-07-20T00:39:27.692Z,99.90
2018-07-20T00:42:09.449Z,99.90
2018-07-20T00:44:50.979Z,99.90
2018-07-20T00:47:32.527Z,99.90
2018-07-20T00:50:14.170Z,99.90
2018-07-20T00:52:56.355Z,99.90
2018-07-20T00:55:37.712Z,99.90
2018-07-20T01:01:01.208Z,99.70
2018-07-20T01:03:42.959Z,99.10
2018-07-20T01:06:24.677Z,98.90
2018-07-20T01:09:06.420Z,98.40
2018-07-20T01:11:48.173Z,98.10
2018-07-20T01:14:29.712Z,97.90
2018-07-20T01:17:11.768Z,97.40
2018-07-20T01:19:52.978Z,96.80
2018-07-20T01:22:34.937Z,96.50
2018-07-20T01:25:16.337Z,96.40
2018-07-20T01:27:57.849Z,96.10
2018-07-20T01:33:20.373Z,96.00
2018-07-20T01:36:01.957Z,95.80
2018-07-20T01:38:43.705Z,95.40
2018-07-20T01:41:24.418Z,95.40
2018-07-20T01:44:05.903Z,95.20
2018-07-20T01:46:47.470Z,95.20
2018-07-20T01:49:29.783Z,95.10
2018-07-20T01:52:10.824Z,95.00
2018-07-20T01:54:51.631Z,94.80
2018-07-20T01:57:33.486Z,94.30
2018-07-20T02:00:15.189Z,93.20
2018-07-20T02:02:56.831Z,93.20
2018-07-20T02:05:38.306Z,92.70
2018-07-20T02:08:20.006Z,91.80
2018-07-20T02:11:02.202Z,91.50
2018-07-20T02:13:43.382Z,91.10
2018-07-20T02:16:25.182Z,91.10
2018-07-20T02:19:06.598Z,90.70
2018-07-20T02:21:50.465Z,90.20
2018-07-20T02:24:33.142Z,90.10
2018-07-20T02:27:15.312Z,89.90
2018-07-20T02:29:57.041Z,89.10
2018-07-20T02:32:38.383Z,89.60
2018-07-20T02:35:20.286Z,89.50
2018-07-20T02:38:02.235Z,89.50
2018-07-20T02:40:43.655Z,89.20
2018-07-20T02:43:25.537Z,89.00
2018-07-20T02:46:07.382Z,88.80
2018-07-20T02:48:49.019Z,88.50
2018-07-20T02:51:30.041Z,88.00
2018-07-20T02:54:11.638Z,88.30
2018-07-20T02:56:53.268Z,88.50
2018-07-20T02:59:34.067Z,88.20
2018-07-20T03:02:15.935Z,88.00
2018-07-20T03:04:57.556Z,87.70
2018-07-20T03:07:39.266Z,87.50
2018-07-20T03:10:20.867Z,86.90
2018-07-20T03:13:02.577Z,87.30
2018-07-20T03:15:45.309Z,87.30
2018-07-20T03:18:27.039Z,87.00
2018-07-20T03:21:08.628Z,86.80
2018-07-20T03:26:32.216Z,86.20
2018-07-20T03:29:13.885Z,86.30
2018-07-20T03:31:55.996Z,86.30
2018-07-20T03:34:36.882Z,85.90
2018-07-20T03:37:18.573Z,86.00
2018-07-20T03:39:59.313Z,86.00
2018-07-20T03:42:40.915Z,85.50
2018-07-20T03:45:22.535Z,85.00
2018-07-20T03:48:04.399Z,84.70
2018-07-20T03:50:46.272Z,84.50
2018-07-20T03:53:27.760Z,84.30
2018-07-20T03:56:08.560Z,84.00
2018-07-20T03:58:49.332Z,83.80
2018-07-20T04:01:30.915Z,84.10
2018-07-20T04:04:13.526Z,84.00
2018-07-20T04:06:55.137Z,83.90
2018-07-20T04:09:36.722Z,83.60
2018-07-20T04:12:18.419Z,83.40
2018-07-20T04:15:00.075Z,83.00
2018-07-20T04:17:43.953Z,83.10
2018-07-20T04:20:25.281Z,82.80
2018-07-20T04:23:06.088Z,82.80
2018-07-20T04:25:47.772Z,82.80
2018-07-20T04:28:29.548Z,83.00
2018-07-20T04:31:11.224Z,83.30
2018-07-20T04:33:52.688Z,83.30
2018-07-20T04:36:34.391Z,83.20
2018-07-20T04:39:16.131Z,83.20
2018-07-20T04:41:57.889Z,83.30
2018-07-20T04:44:39.427Z,83.10
2018-07-20T04:47:21.358Z,83.30
2018-07-20T04:50:02.768Z,83.60
2018-07-20T04:52:45.046Z,84.10
2018-07-20T04:55:26.093Z,84.20
2018-07-20T04:58:07.042Z,84.40
2018-07-20T05:00:49.064Z,84.80
2018-07-20T05:03:30.277Z,85.00
2018-07-20T05:06:11.689Z,85.00
2018-07-20T05:08:55.021Z,84.90
2018-07-20T05:11:36.588Z,84.50
2018-07-20T05:14:18.323Z,85.80
2018-07-20T05:16:59.527Z,84.90
2018-07-20T05:19:41.311Z,85.30
2018-07-20T05:22:22.842Z,84.80
2018-07-20T05:25:05.079Z,85.00
2018-07-20T05:27:46.221Z,85.10
2018-07-20T05:30:26.983Z,84.50
2018-07-20T05:33:08.480Z,85.20
2018-07-20T05:35:50.664Z,86.00
2018-07-20T05:38:31.644Z,85.60
2018-07-20T05:41:12.617Z,85.60
2018-07-20T05:43:54.176Z,85.30
2018-07-20T05:46:36.004Z,85.30
2018-07-20T05:49:17.483Z,85.10
2018-07-20T05:51:59.252Z,84.70
2018-07-20T05:54:41.043Z,84.60
2018-07-20T05:57:22.871Z,84.40
2018-07-20T06:00:04.307Z,83.00
2018-07-20T06:02:46.099Z,82.60
2018-07-20T06:05:27.755Z,82.30
2018-07-20T06:08:09.451Z,82.20
2018-07-20T06:10:51.113Z,82.30
2018-07-20T06:13:39.542Z,82.00
2018-07-20T06:16:20.665Z,82.00
2018-07-20T06:19:02.749Z,82.50
2018-07-20T06:21:44.241Z,82.70
2018-07-20T06:24:25.886Z,82.00
2018-07-20T06:27:07.376Z,82.20
2018-07-20T06:29:48.196Z,83.10
2018-07-20T06:32:29.750Z,86.70
2018-07-20T06:35:12.525Z,85.60
2018-07-20T06:37:53.978Z,89.20
2018-07-20T06:40:35.632Z,89.50
2018-07-20T06:43:17.640Z,90.40
2018-07-20T06:45:58.899Z,91.10
2018-07-20T06:48:40.669Z,91.10
2018-07-20T06:51:22.516Z,91.00
2018-07-20T06:54:03.706Z,91.00
2018-07-20T06:56:44.563Z,90.30
2018-07-20T06:59:26.143Z,90.50
2018-07-20T07:02:06.857Z,91.10
2018-07-20T07:04:48.306Z,90.90
2018-07-20T07:07:29.391Z,91.20
2018-07-20T07:10:11.047Z,91.60
2018-07-20T07:12:52.647Z,91.30
2018-07-20T07:15:33.393Z,91.60
2018-07-20T07:18:14.215Z,90.70
2018-07-20T07:20:55.885Z,91.90
2018-07-20T07:23:37.615Z,91.80
2018-07-20T07:26:19.250Z,91.30
2018-07-20T07:29:00.880Z,91.30
2018-07-20T07:31:42.470Z,90.80
2018-07-20T07:34:23.376Z,90.90
2018-07-20T07:37:04.786Z,90.80
2018-07-20T07:39:46.373Z,90.40
2018-07-20T07:42:28.095Z,90.20
2018-07-20T07:45:09.800Z,89.10
2018-07-20T07:47:50.536Z,88.30
2018-07-20T07:50:31.286Z,88.10
2018-07-20T07:53:12.079Z,88.50
2018-07-20T07:55:53.574Z,88.70
2018-07-20T07:58:35.287Z,89.60
2018-07-20T08:01:17.288Z,90.40
2018-07-20T08:03:58.638Z,90.30
2018-07-20T08:06:40.208Z,91.00
2018-07-20T08:09:21.994Z,91.70
2018-07-20T08:12:03.606Z,91.20
2018-07-20T08:14:44.337Z,91.20
2018-07-20T08:17:27.378Z,91.10
2018-07-20T08:20:08.516Z,91.00
2018-07-20T08:22:49.373Z,90.30
2018-07-20T08:25:31.153Z,90.60
2018-07-20T08:28:12.588Z,90.10
2018-07-20T08:30:54.392Z,90.30
2018-07-20T08:33:36.017Z,90.30
2018-07-20T08:36:16.850Z,90.30
2018-07-20T08:38:58.785Z,90.10
2018-07-20T08:41:40.418Z,90.20
2018-07-20T08:44:21.536Z,89.90
2018-07-20T08:47:03.239Z,90.00
2018-07-20T08:49:44.840Z,90.30
2018-07-20T08:55:15.058Z,89.50
2018-07-20T08:57:56.054Z,89.20
2018-07-20T09:00:36.939Z,89.20
2018-07-20T09:03:18.412Z,89.70
2018-07-20T09:06:00.195Z,90.20
2018-07-20T09:08:41.651Z,90.40
2018-07-20T09:11:23.353Z,90.20
2018-07-20T09:14:05.063Z,90.40
2018-07-20T09:16:46.020Z,90.10
2018-07-20T09:19:27.587Z,89.50
2018-07-20T09:22:08.900Z,88.80
2018-07-20T09:24:50.013Z,88.10
2018-07-20T09:27:31.557Z,88.20
2018-07-20T09:30:13.224Z,87.60
2018-07-20T09:32:54.126Z,87.40
2018-07-20T09:35:35.908Z,86.70
2018-07-20T09:38:17.802Z,87.60
2018-07-20T09:40:59.593Z,87.50
2018-07-20T09:43:41.009Z,87.10
2018-07-20T09:46:22.672Z,87.30
2018-07-20T09:49:04.393Z,87.20
2018-07-20T09:51:45.964Z,86.60
2018-07-20T09:54:28.264Z,87.50
2018-07-20T09:57:09.460Z,87.30
2018-07-20T09:59:51.171Z,87.50
2018-07-20T10:02:32.812Z,87.60
2018-07-20T10:05:15.024Z,88.00
2018-07-20T10:07:56.399Z,88.20
2018-07-20T10:10:37.953Z,87.90
2018-07-20T10:13:19.856Z,87.20
2018-07-20T10:16:01.377Z,88.60
2018-07-20T10:18:43.054Z,87.60
2018-07-20T10:21:24.636Z,86.50
2018-07-20T10:24:06.218Z,87.80
2018-07-20T10:26:48.401Z,85.80
2018-07-20T10:29:29.701Z,84.90
2018-07-20T10:32:10.880Z,84.40
2018-07-20T10:34:52.545Z,84.20
2018-07-20T10:37:33.589Z,84.50
2018-07-20T10:40:15.177Z,82.90
2018-07-20T10:42:58.437Z,81.50
2018-07-20T10:45:39.637Z,79.80
2018-07-20T10:48:21.181Z,82.00
2018-07-20T10:51:01.985Z,82.40
2018-07-20T10:53:43.727Z,82.30
2018-07-20T10:56:25.181Z,81.00
2018-07-20T10:59:06.807Z,82.30
2018-07-20T11:01:48.354Z,80.70
2018-07-20T11:04:29.062Z,81.10
2018-07-20T11:07:10.792Z,80.60
2018-07-20T11:09:52.418Z,77.90
2018-07-20T11:12:34.012Z,77.50
2018-07-20T11:15:14.758Z,78.80
2018-07-20T11:17:56.957Z,79.10
2018-07-20T11:20:38.135Z,79.30
2018-07-20T11:26:01.445Z,78.90
2018-07-20T11:28:42.514Z,79.50
2018-07-20T11:31:23.920Z,81.60
2018-07-20T11:34:05.542Z,82.80
2018-07-20T11:36:46.933Z,81.40
2018-07-20T11:42:19.023Z,81.40
2018-07-20T11:45:00.041Z,80.20
2018-07-20T11:47:45.382Z,80.50
2018-07-20T11:50:26.534Z,79.90
2018-07-20T11:53:07.254Z,78.70
2018-07-20T11:55:49.559Z,79.00
2018-07-20T11:58:31.215Z,80.40
2018-07-20T12:01:12.285Z,80.20
2018-07-20T12:03:54.000Z,82.00
2018-07-20T12:06:36.044Z,82.40
2018-07-20T12:09:17.428Z,81.80
2018-07-20T12:11:58.910Z,79.60
2018-07-20T12:14:39.729Z,80.30
2018-07-20T12:17:21.332Z,79.80
2018-07-20T12:20:03.142Z,78.60
2018-07-20T12:22:45.056Z,78.80
2018-07-20T12:25:26.222Z,79.20
2018-07-20T12:28:07.996Z,80.00
2018-07-20T12:30:48.643Z,81.60
2018-07-20T12:33:30.192Z,80.90
2018-07-20T12:36:11.789Z,80.20
2018-07-20T12:38:53.713Z,81.10
2018-07-20T12:41:35.338Z,79.00
2018-07-20T12:44:17.273Z,80.70
2018-07-20T12:46:58.728Z,80.70
2018-07-20T12:49:40.036Z,80.70
2018-07-20T12:52:21.635Z,79.90
2018-07-20T12:55:03.071Z,78.40
2018-07-20T12:57:44.778Z,77.50
2018-07-20T13:00:26.587Z,78.70
2018-07-20T13:03:08.289Z,77.70
2018-07-20T13:05:49.040Z,79.40
2018-07-20T13:08:30.636Z,79.20
2018-07-20T13:11:12.217Z,79.50
2018-07-20T13:13:53.890Z,77.80
2018-07-20T13:16:34.540Z,78.30
2018-07-20T13:19:16.307Z,78.80
2018-07-20T13:21:57.977Z,78.50
2018-07-20T13:24:39.565Z,75.70
2018-07-20T13:27:21.273Z,76.50
2018-07-20T13:30:02.968Z,76.40
2018-07-20T13:32:44.574Z,76.10
2018-07-20T13:35:25.536Z,77.50
2018-07-20T13:38:08.101Z,77.10
2018-07-20T13:40:49.700Z,73.90
2018-07-20T13:43:30.922Z,74.90
2018-07-20T13:46:12.492Z,75.00
2018-07-20T13:48:53.871Z,76.30
2018-07-20T13:51:35.545Z,73.30
2018-07-20T13:54:16.910Z,67.20
2018-07-20T13:56:58.481Z,69.60
2018-07-20T13:59:40.230Z,71.10
2018-07-20T14:02:21.810Z,72.30
2018-07-20T14:05:03.745Z,73.40
2018-07-20T14:07:45.387Z,71.50
2018-07-20T14:10:26.520Z,71.10
2018-07-20T14:13:09.177Z,71.50
2018-07-20T14:15:51.995Z,71.60
2018-07-20T14:18:33.349Z,71.30
2018-07-20T14:21:14.804Z,72.10
2018-07-20T14:23:57.626Z,72.30
2018-07-20T14:26:40.148Z,72.80
2018-07-20T14:29:26.659Z,71.10
2018-07-20T14:32:08.436Z,71.10
2018-07-20T14:34:50.146Z,70.30
2018-07-20T14:37:31.874Z,70.40
2018-07-20T14:40:12.637Z,68.70
2018-07-20T14:42:54.279Z,68.00
2018-07-20T14:45:35.108Z,67.30
2018-07-20T14:48:16.761Z,67.90
2018-07-20T14:50:58.500Z,65.60
2018-07-20T14:53:40.041Z,66.70
2018-07-20T14:56:21.552Z,66.50
2018-07-20T14:59:03.208Z,66.90
2018-07-20T15:01:43.919Z,67.30
2018-07-20T15:04:24.740Z,66.30
2018-07-20T15:07:06.297Z,66.60
2018-07-20T15:09:48.106Z,66.00
2018-07-20T15:12:29.800Z,65.10
2018-07-20T15:15:11.424Z,65.10
2018-07-20T15:17:52.289Z,63.70
2018-07-20T15:20:33.244Z,63.50
2018-07-20T15:23:14.006Z,64.60
2018-07-20T15:25:55.566Z,65.80
2018-07-20T15:28:36.443Z,67.90
2018-07-20T15:31:18.283Z,68.30
2018-07-20T15:33:59.963Z,68.20
2018-07-20T15:36:41.660Z,67.50
2018-07-20T15:39:22.387Z,67.70
2018-07-20T15:42:04.005Z,66.90
2018-07-20T15:44:45.661Z,67.10
2018-07-20T15:47:27.636Z,66.70
2018-07-20T15:50:09.249Z,65.00
2018-07-20T15:53:36.264Z,62.50
2018-07-20T15:55:31.887Z,61.70
2018-07-20T15:58:13.654Z,62.40
2018-07-20T16:00:57.086Z,62.10
2018-07-20T16:03:38.781Z,63.90
2018-07-20T16:06:20.488Z,62.90
2018-07-20T16:09:02.127Z,63.80
2018-07-20T16:11:43.868Z,64.50
2018-07-20T16:14:24.576Z,65.60
2018-07-20T16:17:05.356Z,66.90
2018-07-20T16:19:47.033Z,67.20
2018-07-20T16:22:28.614Z,68.10
2018-07-20T16:25:09.478Z,68.20
2018-07-20T16:27:51.074Z,68.90
2018-07-20T16:30:32.650Z,68.60
2018-07-20T16:33:14.310Z,69.00
2018-07-20T16:35:56.616Z,70.00
2018-07-20T16:38:37.716Z,71.10
2018-07-20T16:41:18.598Z,71.70
2018-07-20T16:44:00.301Z,73.20
2018-07-20T16:46:41.816Z,74.50
2018-07-20T16:49:23.559Z,76.40
2018-07-20T16:52:05.480Z,77.60
2018-07-20T16:54:47.254Z,78.30
2018-07-20T16:57:29.193Z,79.30
2018-07-20T17:00:10.726Z,80.20
2018-07-20T17:02:52.605Z,81.30
2018-07-20T17:05:33.754Z,82.30
2018-07-20T17:08:17.545Z,82.90
2018-07-20T17:10:58.971Z,83.40
2018-07-20T17:16:38.371Z,85.30
2018-07-20T17:19:19.887Z,86.50
2018-07-20T17:22:01.617Z,86.90
2018-07-20T17:24:42.516Z,87.20
2018-07-20T17:27:23.955Z,87.70
2018-07-20T17:30:05.578Z,88.60
2018-07-20T17:32:46.310Z,90.30
2018-07-20T17:35:27.977Z,90.40
2018-07-20T17:38:11.066Z,90.60
2018-07-20T17:40:52.117Z,91.20
2018-07-20T17:43:33.736Z,91.30
2018-07-20T17:46:16.245Z,91.80
2018-07-20T17:48:57.511Z,92.30
2018-07-20T17:51:39.931Z,92.80
2018-07-20T17:54:22.137Z,93.00
2018-07-20T17:57:03.065Z,93.00
2018-07-20T17:59:44.463Z,93.30
2018-07-20T18:02:32.147Z,93.40
2018-07-20T18:05:13.977Z,93.60
2018-07-20T18:07:55.427Z,93.50
2018-07-20T18:10:37.613Z,93.80
2018-07-20T18:13:18.934Z,93.90
2018-07-20T18:16:00.723Z,94.20
2018-07-20T18:18:42.420Z,94.40
2018-07-20T18:21:24.153Z,94.60
2018-07-20T18:24:05.757Z,94.70
2018-07-20T18:26:46.515Z,94.70
2018-07-20T18:29:28.175Z,94.70
2018-07-20T18:32:10.158Z,95.00
2018-07-20T18:34:51.488Z,95.30
2018-07-20T18:37:32.181Z,95.50
2018-07-20T18:40:13.769Z,96.10
2018-07-20T18:42:54.540Z,96.40
2018-07-20T18:45:36.181Z,96.60
2018-07-20T18:48:17.885Z,96.80
2018-07-20T18:50:59.612Z,97.00
2018-07-20T18:53:41.273Z,97.20
2018-07-20T18:56:22.854Z,97.30
2018-07-20T18:59:04.739Z,97.40
2018-07-20T19:01:46.320Z,97.40
2018-07-20T19:04:30.085Z,97.50
2018-07-20T19:07:11.376Z,97.40
2018-07-20T19:09:56.050Z,97.30
2018-07-20T19:12:39.465Z,97.10
2018-07-20T19:15:21.359Z,96.50
2018-07-20T19:18:03.114Z,96.40
2018-07-20T19:20:44.654Z,96.40
2018-07-20T19:23:26.600Z,96.50
2018-07-20T19:26:08.007Z,96.50
2018-07-20T19:28:49.625Z,96.60
2018-07-20T19:31:31.084Z,96.70
2018-07-20T19:34:12.800Z,96.60
2018-07-20T19:37:00.287Z,96.80
2018-07-20T19:42:25.194Z,96.90
2018-07-20T19:45:07.420Z,96.90
2018-07-20T19:47:48.174Z,96.70
2018-07-20T19:50:29.956Z,95.90
2018-07-20T19:53:11.536Z,95.10
2018-07-20T19:55:55.316Z,94.70
2018-07-20T19:58:37.290Z,94.10
2018-07-20T20:01:18.785Z,93.90
2018-07-20T20:04:00.376Z,94.00
2018-07-20T20:06:42.752Z,94.00
2018-07-20T20:09:23.778Z,93.90
2018-07-20T20:12:05.408Z,93.60
2018-07-20T20:14:47.549Z,93.50
2018-07-20T20:17:28.494Z,93.30
2018-07-20T20:20:11.110Z,92.70
2018-07-20T20:22:52.742Z,92.60
2018-07-20T20:25:33.534Z,92.50
2018-07-20T20:28:22.320Z,92.50
2018-07-20T20:31:04.038Z,92.10
2018-07-20T20:33:46.009Z,91.70
2018-07-20T20:36:27.270Z,91.10
2018-07-20T20:39:10.057Z,91.20
2018-07-20T20:41:51.803Z,90.80
2018-07-20T20:44:36.541Z,90.60
2018-07-20T20:47:18.583Z,89.80
2018-07-20T20:50:00.278Z,90.50
2018-07-20T20:52:41.623Z,90.70
2018-07-20T20:55:24.397Z,90.60
2018-07-20T20:58:06.025Z,90.90
2018-07-20T21:00:47.755Z,90.90
2018-07-20T21:03:29.496Z,90.80
2018-07-20T21:06:11.375Z,90.80
2018-07-20T21:08:52.126Z,90.80
2018-07-20T21:11:33.952Z,90.90
2018-07-20T21:17:22.650Z,91.20
2018-07-20T21:20:04.433Z,91.30
2018-07-20T21:22:46.090Z,91.30
2018-07-20T21:25:27.079Z,91.30
2018-07-20T21:28:08.636Z,91.40
2018-07-20T21:30:50.270Z,91.50
2018-07-20T21:33:32.414Z,91.70
2018-07-20T21:36:14.410Z,91.80
2018-07-20T21:38:55.436Z,91.90
2018-07-20T21:41:37.194Z,92.10
2018-07-20T21:44:18.634Z,92.10
2018-07-20T21:47:00.325Z,92.30
2018-07-20T21:49:42.171Z,92.40
2018-07-20T21:52:23.785Z,92.50
2018-07-20T21:55:05.477Z,92.50
2018-07-20T21:57:46.342Z,92.70
2018-07-20T22:00:28.101Z,92.90
2018-07-20T22:03:10.224Z,92.80
2018-07-20T22:05:51.330Z,92.90
2018-07-20T22:08:33.160Z,93.00
2018-07-20T22:11:14.682Z,93.10
2018-07-20T22:13:56.377Z,93.10
2018-07-20T22:16:38.093Z,93.20
2018-07-20T22:19:18.876Z,93.20
2018-07-20T22:21:59.701Z,93.30
2018-07-20T22:24:41.307Z,93.30
2018-07-20T22:27:23.168Z,93.30
2018-07-20T22:30:04.565Z,93.40
2018-07-20T22:32:46.201Z,93.40
2018-07-20T22:35:27.935Z,93.20
2018-07-20T22:38:09.767Z,93.60
2018-07-20T22:40:51.399Z,93.60
2018-07-20T22:43:33.129Z,93.60
2018-07-20T22:46:14.821Z,93.70
2018-07-20T22:48:55.687Z,93.30
2018-07-20T22:51:37.316Z,93.70
2018-07-20T22:54:19.102Z,93.70
2018-07-20T22:57:00.822Z,93.60
2018-07-20T22:59:42.570Z,93.70
2018-07-20T23:02:24.228Z,93.70
2018-07-20T23:05:05.879Z,93.70
2018-07-20T23:07:46.620Z,93.90
2018-07-20T23:10:27.454Z,94.00
2018-07-20T23:13:08.986Z,94.60
2018-07-20T23:15:50.551Z,94.50
2018-07-20T23:18:31.265Z,94.50
2018-07-20T23:21:13.019Z,94.60
2018-07-20T23:23:54.759Z,94.70
2018-07-20T23:26:35.516Z,94.90
2018-07-20T23:29:16.230Z,95.70
2018-07-20T23:31:57.450Z,96.10
2018-07-20T23:34:38.595Z,96.70
2018-07-20T23:37:20.439Z,97.10
2018-07-20T23:40:02.163Z,98.80
2018-07-20T23:42:43.876Z,99.10
2018-07-20T23:45:25.576Z,99.20
2018-07-20T23:48:07.165Z,99.40
2018-07-20T23:50:48.933Z,99.90
2018-07-20T23:53:29.697Z,99.90
2018-07-20T23:56:11.161Z,99.90
2018-07-20T23:58:52.834Z,99.90
